createdAt,value
2018-06-28T00:01:19.498Z,100476.53
2018-06-28T00:03:47.236Z,100479.11
2018-06-28T00:06:14.792Z,100480.70
2018-06-28T00:08:42.463Z,100480.84
2018-06-28T00:11:10.122Z,100484.28
2018-06-28T00:13:37.715Z,100478.25
2018-06-28T00:16:06.538Z,100485.70
2018-06-28T00:18:34.190Z,100482.03
2018-06-28T00:21:01.882Z,100485.67
2018-06-28T00:23:29.479Z,100485.98
2018-06-28T00:25:57.079Z,100490.56
2018-06-28T00:28:24.687Z,100484.47
2018-06-28T00:30:52.273Z,100490.36
2018-06-28T00:33:20.082Z,100489.02
2018-06-28T00:35:47.737Z,100491.33
2018-06-28T00:38:15.382Z,100485.13
2018-06-28T00:40:43.005Z,100481.81
2018-06-28T00:43:10.622Z,100483.38
2018-06-28T00:45:38.320Z,100483.80
2018-06-28T00:48:06.125Z,100480.06
2018-06-28T00:50:33.784Z,100480.98
2018-06-28T00:53:01.671Z,100485.78
2018-06-28T00:55:29.344Z,100474.48
2018-06-28T00:57:57.013Z,100491.11
2018-06-28T01:00:24.683Z,100484.99
2018-06-28T01:02:52.298Z,100482.22
2018-06-28T01:05:19.997Z,100476.86
2018-06-28T01:07:47.627Z,100479.95
2018-06-28T01:10:15.221Z,100479.70
2018-06-28T01:12:42.821Z,100472.55
2018-06-28T01:15:10.475Z,100463.41
2018-06-28T01:17:38.119Z,100460.70
2018-06-28T01:20:06.411Z,100453.49
2018-06-28T01:22:34.049Z,100453.00
2018-06-28T01:25:01.698Z,100458.02
2018-06-28T01:27:29.331Z,100456.56
2018-06-28T01:29:56.893Z,100460.71
2018-06-28T01:32:24.856Z,100454.20
2018-06-28T01:34:52.547Z,100453.70
2018-06-28T01:37:20.221Z,100452.92
2018-06-28T01:39:47.777Z,100451.91
2018-06-28T01:43:44.123Z,100449.73
2018-06-28T01:46:11.802Z,100448.28
2018-06-28T01:48:39.592Z,100440.22
2018-06-28T01:51:07.294Z,100449.16
2018-06-28T01:53:35.016Z,100450.49
2018-06-28T01:56:02.673Z,100443.65
2018-06-28T01:58:30.323Z,100441.95
2018-06-28T02:00:57.924Z,100441.98
2018-06-28T02:03:25.610Z,100443.39
2018-06-28T02:05:53.909Z,100443.31
2018-06-28T02:08:21.736Z,100445.84
2018-06-28T02:10:49.393Z,100441.52
2018-06-28T02:13:17.441Z,100442.91
2018-06-28T02:15:45.075Z,100437.42
2018-06-28T02:18:12.694Z,100441.12
2018-06-28T02:20:40.560Z,100433.50
2018-06-28T02:23:08.378Z,100433.94
2018-06-28T02:25:36.350Z,100431.31
2018-06-28T02:28:04.478Z,100422.30
2018-06-28T02:30:32.324Z,100425.97
2018-06-28T02:33:00.029Z,100418.67
2018-06-28T02:35:27.974Z,100420.83
2018-06-28T02:37:55.731Z,100419.72
2018-06-28T02:40:23.487Z,100417.34
2018-06-28T02:42:51.251Z,100413.72
2018-06-28T02:45:25.616Z,100413.96
2018-06-28T02:47:53.429Z,100413.59
2018-06-28T02:50:21.029Z,100412.89
2018-06-28T02:52:48.651Z,100415.68
2018-06-28T02:55:16.315Z,100414.86
2018-06-28T02:57:43.943Z,100416.16
2018-06-28T03:00:11.589Z,100408.25
2018-06-28T03:02:39.227Z,100408.13
2018-06-28T03:05:06.884Z,100409.02
2018-06-28T03:07:34.522Z,100416.02
2018-06-28T03:10:02.186Z,100426.00
2018-06-28T03:12:29.828Z,100419.56
2018-06-28T03:14:57.462Z,100419.20
2018-06-28T03:17:25.264Z,100414.12
2018-06-28T03:19:52.935Z,100415.94
2018-06-28T03:22:20.594Z,100411.11
2018-06-28T03:24:48.182Z,100409.51
2018-06-28T03:27:15.942Z,100402.52
2018-06-28T03:29:43.591Z,100400.00
2018-06-28T03:32:11.364Z,100400.16
2018-06-28T03:34:39.082Z,100401.11
2018-06-28T03:37:06.802Z,100406.36
2018-06-28T03:39:34.422Z,100413.51
2018-06-28T03:42:02.044Z,100413.05
2018-06-28T03:44:29.721Z,100408.31
2018-06-28T03:46:57.349Z,100409.56
2018-06-28T03:49:25.104Z,100410.16
2018-06-28T03:51:52.773Z,100405.66
2018-06-28T03:54:20.525Z,100409.30
2018-06-28T03:56:48.173Z,100401.41
2018-06-28T03:59:15.784Z,100396.48
2018-06-28T04:01:43.453Z,100392.94
2018-06-28T04:04:10.993Z,100395.15
2018-06-28T04:06:38.628Z,100399.06
2018-06-28T04:09:09.344Z,100400.58
2018-06-28T04:11:36.957Z,100394.97
2018-06-28T04:14:04.582Z,100401.25
2018-06-28T04:16:32.148Z,100396.90
2018-06-28T04:18:59.848Z,100403.58
2018-06-28T04:21:27.494Z,100398.77
2018-06-28T04:23:55.120Z,100394.75
2018-06-28T04:26:22.778Z,100414.33
2018-06-28T04:28:50.374Z,100406.70
2018-06-28T04:31:18.076Z,100406.06
2018-06-28T04:33:45.672Z,100409.90
2018-06-28T04:36:13.326Z,100397.96
2018-06-28T04:38:40.964Z,100403.13
2018-06-28T04:41:08.546Z,100408.30
2018-06-28T04:43:36.206Z,100394.93
2018-06-28T04:46:03.896Z,100398.27
2018-06-28T04:48:31.536Z,100397.45
2018-06-28T04:50:59.238Z,100401.39
2018-06-28T04:53:26.857Z,100401.58
2018-06-28T04:55:54.501Z,100390.06
2018-06-28T04:58:22.093Z,100394.00
2018-06-28T05:00:49.759Z,100391.34
2018-06-28T05:03:17.331Z,100395.05
2018-06-28T05:05:44.943Z,100385.72
2018-06-28T05:08:12.563Z,100376.94
2018-06-28T05:10:40.225Z,100374.09
2018-06-28T05:13:07.928Z,100376.74
2018-06-28T05:15:35.535Z,100375.41
2018-06-28T05:18:03.174Z,100372.11
2018-06-28T05:20:30.798Z,100378.25
2018-06-28T05:22:58.406Z,100385.75
2018-06-28T05:25:26.022Z,100372.59
2018-06-28T05:27:53.631Z,100377.07
2018-06-28T05:30:21.286Z,100371.59
2018-06-28T05:32:49.322Z,100377.04
2018-06-28T05:35:17.159Z,100370.67
2018-06-28T05:37:44.748Z,100366.50
2018-06-28T05:40:12.419Z,100364.61
2018-06-28T05:42:40.073Z,100358.27
2018-06-28T05:45:07.713Z,100361.10
2018-06-28T05:47:35.293Z,100348.13
2018-06-28T05:50:03.014Z,100358.44
2018-06-28T05:52:30.616Z,100350.44
2018-06-28T05:54:58.287Z,100357.31
2018-06-28T05:57:25.897Z,100349.53
2018-06-28T05:59:53.541Z,100343.30
2018-06-28T06:02:21.124Z,100341.67
2018-06-28T06:04:48.743Z,100338.41
2018-06-28T06:07:17.371Z,100331.84
2018-06-28T06:09:45.025Z,100330.12
2018-06-28T06:12:12.638Z,100339.09
2018-06-28T06:14:40.303Z,100341.22
2018-06-28T06:17:07.894Z,100339.29
2018-06-28T06:19:35.559Z,100334.12
2018-06-28T06:22:03.245Z,100342.28
2018-06-28T06:24:30.866Z,100341.01
2018-06-28T06:26:58.496Z,100338.52
2018-06-28T06:29:26.180Z,100338.87
2018-06-28T06:31:53.789Z,100336.60
2018-06-28T06:34:21.479Z,100333.93
2018-06-28T06:36:49.742Z,100334.69
2018-06-28T06:39:17.378Z,100333.02
2018-06-28T06:41:45.001Z,100336.20
2018-06-28T06:44:12.789Z,100330.11
2018-06-28T06:46:40.479Z,100329.16
2018-06-28T06:49:08.148Z,100328.33
2018-06-28T06:51:35.747Z,100316.22
2018-06-28T06:54:03.377Z,100324.55
2018-06-28T06:56:31.023Z,100313.34
2018-06-28T06:58:58.729Z,100310.67
2018-06-28T07:01:26.383Z,100309.03
2018-06-28T07:03:54.065Z,100306.07
2018-06-28T07:06:21.701Z,100310.23
2018-06-28T07:08:49.563Z,100302.37
2018-06-28T07:11:17.239Z,100293.41
2018-06-28T07:13:44.839Z,100301.57
2018-06-28T07:16:12.447Z,100304.45
2018-06-28T07:18:40.249Z,100306.05
2018-06-28T07:21:07.902Z,100298.41
2018-06-28T07:23:35.578Z,100285.61
2018-06-28T07:26:03.326Z,100289.02
2018-06-28T07:28:31.102Z,100282.70
2018-06-28T07:30:58.878Z,100280.98
2018-06-28T07:33:26.688Z,100275.81
2018-06-28T07:35:54.350Z,100271.63
2018-06-28T07:38:21.976Z,100268.48
2018-06-28T07:40:49.677Z,100266.91
2018-06-28T07:43:17.334Z,100265.19
2018-06-28T07:45:44.994Z,100261.37
2018-06-28T07:48:12.642Z,100256.20
2018-06-28T07:50:40.459Z,100252.16
2018-06-28T07:53:07.966Z,100251.27
2018-06-28T07:55:35.558Z,100243.80
2018-06-28T07:58:03.254Z,100235.54
2018-06-28T08:00:31.020Z,100247.11
2018-06-28T08:02:58.689Z,100246.02
2018-06-28T08:05:27.300Z,100240.95
2018-06-28T08:07:54.895Z,100234.95
2018-06-28T08:10:22.567Z,100239.88
2018-06-28T08:12:50.231Z,100241.67
2018-06-28T08:15:18.001Z,100243.81
2018-06-28T08:17:45.717Z,100241.50
2018-06-28T08:20:13.372Z,100243.22
2018-06-28T08:22:41.007Z,100244.11
2018-06-28T08:25:08.585Z,100245.28
2018-06-28T08:27:36.391Z,100238.78
2018-06-28T08:30:04.915Z,100229.98
2018-06-28T08:32:32.590Z,100217.94
2018-06-28T08:35:00.174Z,100224.33
2018-06-28T08:37:27.824Z,100221.52
2018-06-28T08:39:55.446Z,100222.36
2018-06-28T08:42:23.107Z,100216.08
2018-06-28T08:44:50.736Z,100215.98
2018-06-28T08:47:18.364Z,100212.55
2018-06-28T08:49:45.977Z,100217.31
2018-06-28T08:52:13.653Z,100222.25
2018-06-28T08:54:41.307Z,100216.37
2018-06-28T08:57:08.949Z,100204.30
2018-06-28T08:59:36.551Z,100218.17
2018-06-28T09:02:04.391Z,100206.00
2018-06-28T09:04:32.023Z,100216.31
2018-06-28T09:06:59.779Z,100217.73
2018-06-28T09:09:27.393Z,100211.34
2018-06-28T09:11:55.035Z,100210.17
2018-06-28T09:14:22.707Z,100197.98
2018-06-28T09:16:50.379Z,100209.59
2018-06-28T09:19:18.061Z,100204.52
2018-06-28T09:21:45.938Z,100205.69
2018-06-28T09:24:13.589Z,100206.36
2018-06-28T09:26:41.236Z,100198.98
2018-06-28T09:29:08.851Z,100199.03
2018-06-28T09:31:36.442Z,100193.55
2018-06-28T09:34:04.141Z,100194.28
2018-06-28T09:36:32.434Z,100196.64
2018-06-28T09:39:00.120Z,100196.86
2018-06-28T09:41:27.781Z,100194.87
2018-06-28T09:43:55.434Z,100194.20
2018-06-28T09:46:23.142Z,100191.38
2018-06-28T09:48:50.818Z,100186.27
2018-06-28T09:51:18.457Z,100191.05
2018-06-28T09:53:46.628Z,100181.00
2018-06-28T09:56:14.256Z,100179.86
2018-06-28T09:58:41.970Z,100180.63
2018-06-28T10:01:09.580Z,100186.81
2018-06-28T10:03:37.458Z,100182.51
2018-06-28T10:06:05.320Z,100182.46
2018-06-28T10:08:32.954Z,100179.45
2018-06-28T10:11:00.586Z,100174.77
2018-06-28T10:13:28.232Z,100175.92
2018-06-28T10:15:55.863Z,100171.88
2018-06-28T10:18:23.488Z,100167.05
2018-06-28T10:20:51.153Z,100168.02
2018-06-28T10:23:18.851Z,100162.12
2018-06-28T10:25:46.516Z,100164.61
2018-06-28T10:28:14.151Z,100152.44
2018-06-28T10:30:41.730Z,100159.07
2018-06-28T10:33:10.235Z,100149.88
2018-06-28T10:35:38.147Z,100149.55
2018-06-28T10:38:05.846Z,100147.78
2018-06-28T10:40:33.521Z,100143.27
2018-06-28T10:43:01.431Z,100145.84
2018-06-28T10:45:29.055Z,100148.73
2018-06-28T10:47:56.644Z,100152.55
2018-06-28T10:50:24.272Z,100149.34
2018-06-28T10:52:51.895Z,100148.00
2018-06-28T10:55:19.775Z,100143.23
2018-06-28T10:57:47.998Z,100148.87
2018-06-28T11:00:15.758Z,100146.13
2018-06-28T11:02:43.366Z,100150.34
2018-06-28T11:05:11.067Z,100141.00
2018-06-28T11:07:38.748Z,100137.61
2018-06-28T11:10:06.759Z,100139.83
2018-06-28T11:12:34.379Z,100131.58
2018-06-28T11:15:02.082Z,100138.58
2018-06-28T11:17:29.715Z,100128.78
2018-06-28T11:19:57.335Z,100139.11
2018-06-28T11:22:25.091Z,100117.75
2018-06-28T11:24:52.675Z,100136.94
2018-06-28T11:27:20.455Z,100126.53
2018-06-28T11:29:48.027Z,100123.62
2018-06-28T11:32:15.750Z,100121.73
2018-06-28T11:34:43.448Z,100122.98
2018-06-28T11:37:11.405Z,100119.69
2018-06-28T11:39:39.254Z,100114.20
2018-06-28T11:42:06.874Z,100123.41
2018-06-28T11:44:34.506Z,100116.90
2018-06-28T11:47:02.177Z,100118.22
2018-06-28T11:49:29.761Z,100114.63
2018-06-28T11:51:57.410Z,100113.16
2018-06-28T11:54:25.154Z,100112.86
2018-06-28T11:56:52.786Z,100105.97
2018-06-28T11:59:20.420Z,100113.70
2018-06-28T12:01:48.026Z,100117.53
2018-06-28T12:04:15.745Z,100109.98
2018-06-28T12:06:43.435Z,100103.91
2018-06-28T12:09:11.503Z,100117.08
2018-06-28T12:11:39.507Z,100120.92
2018-06-28T12:14:07.163Z,100113.81
2018-06-28T12:16:34.873Z,100112.18
2018-06-28T12:19:02.579Z,100112.56
2018-06-28T12:21:30.201Z,100116.13
2018-06-28T12:23:57.861Z,100113.15
2018-06-28T12:26:25.592Z,100098.75
2018-06-28T12:28:53.283Z,100103.80
2018-06-28T12:31:20.907Z,100100.11
2018-06-28T12:33:48.697Z,100098.58
2018-06-28T12:36:16.557Z,100092.30
2018-06-28T12:38:44.328Z,100044.27
2018-06-28T12:41:12.011Z,100091.34
2018-06-28T12:43:39.600Z,100100.91
2018-06-28T12:46:07.243Z,100103.91
2018-06-28T12:48:34.896Z,100110.05
2018-06-28T12:51:02.486Z,100103.33
2018-06-28T12:53:30.140Z,100103.82
2018-06-28T12:56:31.028Z,100109.23
2018-06-28T12:59:01.129Z,100115.95
2018-06-28T13:01:29.197Z,100116.02
2018-06-28T13:03:57.156Z,100127.98
2018-06-28T13:06:24.819Z,100125.94
2018-06-28T13:08:53.283Z,100133.98
2018-06-28T13:11:21.263Z,100115.92
2018-06-28T13:13:48.933Z,100125.36
2018-06-28T13:16:17.255Z,100130.98
2018-06-28T13:18:45.686Z,100123.55
2018-06-28T13:21:13.466Z,100122.36
2018-06-28T13:23:41.175Z,100123.56
2018-06-28T13:26:09.899Z,100118.75
2018-06-28T13:28:37.601Z,100127.48
2018-06-28T13:31:05.299Z,100125.21
2018-06-28T13:33:32.924Z,100129.65
2018-06-28T13:36:00.585Z,100121.44
2018-06-28T13:38:28.261Z,100113.08
2018-06-28T13:40:56.112Z,100105.78
2018-06-28T13:43:23.588Z,100111.84
2018-06-28T13:45:51.267Z,100109.06
2018-06-28T13:48:19.466Z,100106.14
2018-06-28T13:50:47.280Z,100102.32
2018-06-28T13:53:15.032Z,100095.50
2018-06-28T13:55:42.654Z,100093.69
2018-06-28T13:58:10.320Z,100089.86
2018-06-28T14:00:37.984Z,100082.56
2018-06-28T14:03:05.757Z,100077.95
2018-06-28T14:05:33.398Z,100079.28
2018-06-28T14:08:01.073Z,100072.20
2018-06-28T14:10:28.709Z,100069.53
2018-06-28T14:12:56.363Z,100048.96
2018-06-28T14:15:24.051Z,100066.44
2018-06-28T14:17:51.713Z,100062.54
2018-06-28T14:20:19.436Z,100063.63
2018-06-28T14:22:47.237Z,100065.66
2018-06-28T14:25:14.884Z,100061.09
2018-06-28T14:27:42.500Z,100060.87
2018-06-28T14:30:11.790Z,100062.34
2018-06-28T14:32:39.934Z,100055.09
2018-06-28T14:35:07.664Z,100050.02
2018-06-28T14:37:35.390Z,100045.94
2018-06-28T14:40:03.563Z,100039.75
2018-06-28T14:42:31.230Z,100035.06
2018-06-28T14:44:58.892Z,100038.67
2018-06-28T14:47:26.484Z,100032.52
2018-06-28T14:49:54.138Z,100032.93
2018-06-28T14:52:21.786Z,100030.54
2018-06-28T14:54:49.632Z,100029.12
2018-06-28T14:57:17.287Z,100030.56
2018-06-28T14:59:45.021Z,100037.45
2018-06-28T15:02:12.861Z,100037.97
2018-06-28T15:04:40.471Z,100050.76
2018-06-28T15:07:08.208Z,100045.08
2018-06-28T15:09:35.841Z,100048.97
2018-06-28T15:12:03.601Z,100049.39
2018-06-28T15:14:31.158Z,100050.73
2018-06-28T15:16:58.841Z,100054.20
2018-06-28T15:19:26.497Z,100051.07
2018-06-28T15:21:54.219Z,100049.95
2018-06-28T15:24:21.879Z,100044.37
2018-06-28T15:26:49.554Z,100035.95
2018-06-28T15:29:17.207Z,100029.01
2018-06-28T15:31:44.911Z,100024.53
2018-06-28T15:34:12.865Z,100030.21
2018-06-28T15:36:40.545Z,100030.72
2018-06-28T15:39:09.086Z,100026.30
2018-06-28T15:41:37.290Z,100016.52
2018-06-28T15:44:05.031Z,100015.52
2018-06-28T15:46:32.989Z,100014.38
2018-06-28T15:49:00.710Z,100010.87
2018-06-28T15:51:28.456Z,100014.09
2018-06-28T15:53:56.080Z,100003.09
2018-06-28T15:56:23.874Z,99999.30
2018-06-28T15:58:51.490Z,99994.63
2018-06-28T16:01:19.173Z,99994.68
2018-06-28T16:03:46.838Z,99995.56
2018-06-28T16:06:14.586Z,99995.84
2018-06-28T16:08:42.284Z,99987.68
2018-06-28T16:11:09.976Z,99990.30
2018-06-28T16:13:37.616Z,99987.61
2018-06-28T16:16:05.510Z,99988.22
2018-06-28T16:18:33.239Z,99983.61
2018-06-28T16:21:00.930Z,99982.96
2018-06-28T16:23:28.639Z,99976.68
2018-06-28T16:25:56.303Z,99979.95
2018-06-28T16:28:23.889Z,99978.91
2018-06-28T16:30:51.503Z,99976.48
2018-06-28T16:33:19.173Z,99978.63
2018-06-28T16:35:46.767Z,99961.27
2018-06-28T16:38:14.393Z,99973.34
2018-06-28T16:40:42.091Z,99975.76
2018-06-28T16:43:09.769Z,99974.55
2018-06-28T16:45:37.426Z,99973.88
2018-06-28T16:48:05.213Z,99976.72
2018-06-28T16:50:32.872Z,99982.45
2018-06-28T16:53:00.712Z,99976.68
2018-06-28T16:55:28.383Z,99981.98
2018-06-28T16:57:56.201Z,99984.32
2018-06-28T17:00:23.919Z,99985.16
2018-06-28T17:02:51.638Z,99988.84
2018-06-28T17:05:19.420Z,99985.16
2018-06-28T17:07:47.314Z,99989.52
2018-06-28T17:10:15.271Z,99989.95
2018-06-28T17:12:42.933Z,99986.30
2018-06-28T17:15:10.747Z,99973.81
2018-06-28T17:17:38.523Z,99980.88
2018-06-28T17:20:06.284Z,99977.32
2018-06-28T17:22:34.140Z,99979.31
2018-06-28T17:25:01.894Z,99979.83
2018-06-28T17:27:29.665Z,99973.76
2018-06-28T17:29:57.424Z,99973.03
2018-06-28T17:32:25.267Z,99974.61
2018-06-28T17:34:53.075Z,99982.73
2018-06-28T17:37:20.817Z,99976.55
2018-06-28T17:39:48.552Z,99980.69
2018-06-28T17:42:16.156Z,99981.11
2018-06-28T17:44:44.267Z,99981.30
2018-06-28T17:47:11.980Z,99979.97
2018-06-28T17:49:39.724Z,99981.47
2018-06-28T17:52:08.865Z,99974.09
2018-06-28T17:54:36.663Z,99975.89
2018-06-28T17:57:04.498Z,99977.64
2018-06-28T17:59:32.349Z,99977.18
2018-06-28T18:02:00.067Z,99976.94
2018-06-28T18:04:27.749Z,99975.04
2018-06-28T18:06:55.455Z,99976.75
2018-06-28T18:09:23.241Z,99976.37
2018-06-28T18:11:51.004Z,99975.58
2018-06-28T18:14:18.983Z,99975.78
2018-06-28T18:16:46.936Z,99969.95
2018-06-28T18:19:14.688Z,99967.53
2018-06-28T18:21:42.368Z,99959.77
2018-06-28T18:24:10.108Z,99967.65
2018-06-28T18:26:37.874Z,99967.43
2018-06-28T18:29:05.636Z,99967.83
2018-06-28T18:31:33.446Z,99968.44
2018-06-28T18:34:01.178Z,99967.74
2018-06-28T18:36:29.105Z,99968.22
2018-06-28T18:38:56.918Z,99970.48
2018-06-28T18:41:24.676Z,99965.69
2018-06-28T18:43:52.365Z,99956.64
2018-06-28T18:46:20.204Z,99944.52
2018-06-28T18:48:48.037Z,99949.88
2018-06-28T18:51:16.819Z,99946.20
2018-06-28T18:53:44.641Z,99944.51
2018-06-28T18:56:12.365Z,99939.61
2018-06-28T18:58:40.077Z,99943.75
2018-06-28T19:01:07.909Z,99952.23
2018-06-28T19:03:35.896Z,99944.69
2018-06-28T19:06:03.736Z,99946.78
2018-06-28T19:08:31.423Z,99946.72
2018-06-28T19:10:59.091Z,99945.70
2018-06-28T19:13:27.575Z,99951.48
2018-06-28T19:16:01.143Z,99944.48
2018-06-28T19:18:29.227Z,99947.22
2018-06-28T19:21:02.806Z,99947.94
2018-06-28T19:23:36.211Z,99942.78
2018-06-28T19:26:04.389Z,99945.38
2018-06-28T19:28:32.313Z,99946.46
2018-06-28T19:31:05.711Z,99949.70
2018-06-28T19:33:33.417Z,99952.20
2018-06-28T19:36:01.154Z,99954.22
2018-06-28T19:38:34.557Z,99957.47
2018-06-28T19:41:08.079Z,99954.41
2018-06-28T19:43:35.832Z,99957.80
2018-06-28T19:46:03.549Z,99958.30
2018-06-28T19:48:31.305Z,99959.88
2018-06-28T19:51:04.878Z,99960.39
2018-06-28T19:53:32.660Z,99959.16
2018-06-28T19:56:00.564Z,99955.13
2018-06-28T19:58:28.324Z,99958.37
2018-06-28T20:01:01.827Z,99953.64
2018-06-28T20:03:35.421Z,99947.68
2018-06-28T20:06:03.433Z,99942.66
2018-06-28T20:08:31.391Z,99943.34
2018-06-28T20:10:59.371Z,99941.13
2018-06-28T20:13:33.076Z,99947.49
2018-06-28T20:16:06.568Z,99933.37
2018-06-28T20:18:40.154Z,99938.47
2018-06-28T20:21:07.983Z,99937.81
2018-06-28T20:23:35.805Z,99939.55
2018-06-28T20:26:09.369Z,99939.55
2018-06-28T20:28:42.868Z,99940.61
2018-06-28T20:31:16.508Z,99942.98
2018-06-28T20:33:49.955Z,99939.67
2018-06-28T20:36:17.823Z,99939.67
2018-06-28T20:38:45.573Z,99938.77
2018-06-28T20:41:13.321Z,99935.41
2018-06-28T20:43:41.065Z,99940.75
2018-06-28T20:46:08.793Z,99943.92
2018-06-28T20:48:36.524Z,99941.07
2018-06-28T20:51:04.547Z,99948.18
2018-06-28T20:53:32.743Z,99947.63
2018-06-28T20:56:00.619Z,99944.17
2018-06-28T20:58:28.940Z,99948.58
2018-06-28T21:00:58.156Z,99940.06
2018-06-28T21:03:26.841Z,99942.58
2018-06-28T21:05:54.565Z,99945.89
2018-06-28T21:08:22.302Z,99943.66
2018-06-28T21:10:50.138Z,99947.81
2018-06-28T21:13:17.917Z,99944.12
2018-06-28T21:15:45.724Z,99947.09
2018-06-28T21:18:13.383Z,99945.97
2018-06-28T21:20:41.094Z,99947.55
2018-06-28T21:23:08.828Z,99945.75
2018-06-28T21:25:36.462Z,99945.30
2018-06-28T21:28:04.262Z,99950.65
2018-06-28T21:30:31.965Z,99946.84
2018-06-28T21:32:59.738Z,99948.75
2018-06-28T21:35:27.407Z,99945.94
2018-06-28T21:37:55.097Z,99946.34
2018-06-28T21:40:22.808Z,99941.77
2018-06-28T21:42:50.480Z,99954.66
2018-06-28T21:45:18.144Z,99953.84
2018-06-28T21:47:45.899Z,99950.98
2018-06-28T21:50:13.569Z,99956.00
2018-06-28T21:52:41.181Z,99952.78
2018-06-28T21:55:08.800Z,99952.38
2018-06-28T21:57:36.451Z,99951.85
2018-06-28T22:00:06.433Z,99950.08
2018-06-28T22:02:34.134Z,99952.30
2018-06-28T22:05:01.820Z,99955.06
2018-06-28T22:07:29.458Z,99953.77
2018-06-28T22:09:57.117Z,99949.64
2018-06-28T22:12:24.793Z,99949.52
2018-06-28T22:14:52.462Z,99946.45
2018-06-28T22:17:20.112Z,99948.29
2018-06-28T22:19:47.807Z,99949.70
2018-06-28T22:22:15.528Z,99949.56
2018-06-28T22:24:43.154Z,99948.14
2018-06-28T22:27:10.834Z,99945.02
2018-06-28T22:29:39.520Z,99948.19
2018-06-28T22:32:07.205Z,99937.07
2018-06-28T22:34:34.805Z,99940.48
2018-06-28T22:37:02.664Z,99940.80
2018-06-28T22:39:30.363Z,99947.80
2018-06-28T22:41:57.997Z,99944.19
2018-06-28T22:44:25.579Z,99935.53
2018-06-28T22:46:53.241Z,99940.75
2018-06-28T22:49:20.869Z,99938.24
2018-06-28T22:51:48.524Z,99937.81
2018-06-28T22:54:16.291Z,99932.20
2018-06-28T22:56:43.997Z,99928.78
2018-06-28T22:59:12.071Z,99925.28
2018-06-28T23:01:39.719Z,99926.56
2018-06-28T23:04:07.355Z,99921.42
2018-06-28T23:06:35.032Z,99923.63
2018-06-28T23:09:05.073Z,99921.22
2018-06-28T23:11:32.729Z,99926.48
2018-06-28T23:14:00.397Z,99931.84
2018-06-28T23:16:28.099Z,99926.87
2018-06-28T23:18:55.749Z,99932.41
2018-06-28T23:21:23.443Z,99930.62
2018-06-28T23:23:51.149Z,99931.27
2018-06-28T23:26:18.741Z,99933.24
2018-06-28T23:28:46.299Z,99930.13
2018-06-28T23:31:14.037Z,99928.08
2018-06-28T23:33:41.658Z,99930.83
2018-06-28T23:36:09.392Z,99935.38
2018-06-28T23:38:37.088Z,99927.33
2018-06-28T23:41:04.832Z,99920.70
2018-06-28T23:43:32.488Z,99926.11
2018-06-28T23:46:00.122Z,99927.40
2018-06-28T23:48:27.849Z,99926.00
2018-06-28T23:50:55.565Z,99930.94
2018-06-28T23:53:23.213Z,99929.93
2018-06-28T23:55:50.928Z,99934.33
2018-06-28T23:58:18.653Z,99930.14
